createdAt,value
2019-01-30T00:00:46.332Z,18.25
2019-01-30T00:01:46.338Z,18.25
2019-01-30T00:02:46.254Z,18.25
2019-01-30T00:03:46.302Z,18.25
2019-01-30T00:04:46.154Z,18.25
2019-01-30T00:05:46.152Z,18.25
2019-01-30T00:06:45.873Z,18.25
2019-01-30T00:07:46.058Z,18.25
2019-01-30T00:08:46.318Z,18.25
2019-01-30T00:09:45.896Z,18.25
2019-01-30T00:10:46.134Z,18.25
2019-01-30T00:11:46.429Z,18.25
2019-01-30T00:12:46.046Z,18.25
2019-01-30T00:13:46.313Z,18.25
2019-01-30T00:14:45.917Z,18.25
2019-01-30T00:15:56.902Z,18.25
2019-01-30T00:16:46.038Z,18.25
2019-01-30T00:17:46.160Z,18.25
2019-01-30T00:18:46.003Z,18.25
2019-01-30T00:19:46.274Z,18.25
2019-01-30T00:20:46.049Z,18.25
2019-01-30T00:21:45.998Z,18.25
2019-01-30T00:22:45.981Z,18.25
2019-01-30T00:23:46.068Z,18.25
2019-01-30T00:24:46.020Z,18.25
2019-01-30T00:25:46.113Z,18.25
2019-01-30T00:26:46.003Z,18.25
2019-01-30T00:27:46.180Z,18.25
2019-01-30T00:28:46.238Z,18.25
2019-01-30T00:29:45.957Z,18.25
2019-01-30T00:30:46.064Z,18.25
2019-01-30T00:31:46.224Z,18.25
2019-01-30T00:32:45.975Z,18.25
2019-01-30T00:33:46.111Z,18.25
2019-01-30T00:34:46.092Z,18.25
2019-01-30T00:35:46.912Z,18.25
2019-01-30T00:36:45.965Z,18
2019-01-30T00:37:46.403Z,18.25
2019-01-30T00:38:47.738Z,18.25
2019-01-30T00:39:46.322Z,18
2019-01-30T00:40:46.589Z,18.25
2019-01-30T00:41:46.223Z,18
2019-01-30T00:42:46.020Z,18
2019-01-30T00:43:45.979Z,18
2019-01-30T00:44:46.134Z,18
2019-01-30T00:45:46.654Z,18
2019-01-30T00:46:46.474Z,18
2019-01-30T00:47:47.964Z,18
2019-01-30T00:48:46.463Z,18
2019-01-30T00:49:46.283Z,18
2019-01-30T00:50:47.974Z,18
2019-01-30T00:51:46.060Z,18
2019-01-30T00:52:46.041Z,18
2019-01-30T00:53:46.299Z,18
2019-01-30T00:54:46.205Z,18
2019-01-30T00:55:46.035Z,18
2019-01-30T00:56:46.222Z,18
2019-01-30T00:57:46.139Z,18
2019-01-30T00:58:46.227Z,18
2019-01-30T00:59:46.654Z,18
2019-01-30T01:00:46.172Z,18
2019-01-30T01:01:46.074Z,18
2019-01-30T01:02:46.109Z,18
2019-01-30T01:03:45.948Z,18
2019-01-30T01:04:46.381Z,18
2019-01-30T01:05:45.926Z,18
2019-01-30T01:07:46.208Z,18
2019-01-30T01:08:47.832Z,18
2019-01-30T01:09:45.997Z,18
2019-01-30T01:10:46.075Z,18
2019-01-30T01:11:46.241Z,18
2019-01-30T01:12:46.441Z,18
2019-01-30T01:13:46.225Z,18
2019-01-30T01:14:46.163Z,18
2019-01-30T01:15:46.114Z,18
2019-01-30T01:16:46.381Z,18
2019-01-30T01:17:45.934Z,18
2019-01-30T01:18:46.144Z,18
2019-01-30T01:19:46.088Z,18
2019-01-30T01:20:46.301Z,18
2019-01-30T01:21:46.066Z,18
2019-01-30T01:22:45.918Z,18
2019-01-30T01:23:46.121Z,18
2019-01-30T01:24:46.426Z,18
2019-01-30T01:25:46.236Z,18
2019-01-30T01:26:46.350Z,18
2019-01-30T01:27:46.169Z,18
2019-01-30T01:28:45.992Z,18
2019-01-30T01:29:46.362Z,17.75
2019-01-30T01:30:46.784Z,18
2019-01-30T01:31:46.389Z,18
2019-01-30T01:32:47.076Z,17.75
2019-01-30T01:33:46.482Z,17.75
2019-01-30T01:34:46.006Z,17.75
2019-01-30T01:35:46.966Z,17.75
2019-01-30T01:36:46.209Z,17.75
2019-01-30T01:37:46.025Z,17.75
2019-01-30T01:38:46.420Z,17.75
2019-01-30T01:39:46.845Z,17.75
2019-01-30T01:40:46.079Z,17.75
2019-01-30T01:41:46.053Z,17.75
2019-01-30T01:42:47.791Z,17.75
2019-01-30T01:43:46.184Z,17.75
2019-01-30T01:44:46.791Z,17.75
2019-01-30T01:45:46.192Z,17.75
2019-01-30T01:46:46.178Z,17.75
2019-01-30T01:48:46.503Z,17.75
2019-01-30T01:49:46.683Z,17.75
2019-01-30T01:50:45.935Z,17.75
2019-01-30T01:51:46.178Z,17.75
2019-01-30T01:52:45.816Z,17.75
2019-01-30T01:53:46.069Z,17.75
2019-01-30T01:54:45.977Z,17.75
2019-01-30T01:55:45.875Z,17.75
2019-01-30T01:56:45.948Z,17.75
2019-01-30T01:57:46.364Z,17.75
2019-01-30T01:58:45.984Z,17.75
2019-01-30T01:59:46.420Z,17.75
2019-01-30T02:00:45.984Z,17.75
2019-01-30T02:01:45.939Z,17.75
2019-01-30T02:02:45.892Z,17.75
2019-01-30T02:03:46.171Z,17.75
2019-01-30T02:04:45.974Z,17.75
2019-01-30T02:05:46.008Z,17.75
2019-01-30T02:06:46.039Z,17.75
2019-01-30T02:07:45.840Z,17.75
2019-01-30T02:08:46.065Z,17.75
2019-01-30T02:09:46.047Z,17.75
2019-01-30T02:10:45.816Z,17.75
2019-01-30T02:11:46.041Z,17.75
2019-01-30T02:12:46.156Z,17.75
2019-01-30T02:13:46.694Z,17.75
2019-01-30T02:14:45.736Z,17.75
2019-01-30T02:15:46.279Z,17.75
2019-01-30T02:16:46.247Z,17.75
2019-01-30T02:17:46.123Z,17.75
2019-01-30T02:18:46.616Z,17.75
2019-01-30T02:19:46.723Z,17.75
2019-01-30T02:20:46.414Z,17.75
2019-01-30T02:21:46.235Z,17.75
2019-01-30T02:22:46.078Z,17.75
2019-01-30T02:23:45.805Z,17.75
2019-01-30T02:24:45.941Z,17.75
2019-01-30T02:25:46.093Z,17.75
2019-01-30T02:26:46.063Z,17.75
2019-01-30T02:27:46.142Z,17.75
2019-01-30T02:28:46.579Z,17.75
2019-01-30T02:29:46.383Z,17.75
2019-01-30T02:30:48.087Z,17.75
2019-01-30T02:31:48.021Z,17.75
2019-01-30T02:32:45.766Z,17.75
2019-01-30T02:33:45.881Z,17.75
2019-01-30T02:34:46.177Z,17.75
2019-01-30T02:35:46.289Z,17.75
2019-01-30T02:36:45.998Z,17.5
2019-01-30T02:37:45.751Z,17.5
2019-01-30T02:38:45.839Z,17.5
2019-01-30T02:39:46.203Z,17.75
2019-01-30T02:40:46.001Z,17.5
2019-01-30T02:41:46.217Z,17.5
2019-01-30T02:42:45.839Z,17.5
2019-01-30T02:43:45.934Z,17.5
2019-01-30T02:44:46.192Z,17.5
2019-01-30T02:45:46.413Z,17.5
2019-01-30T02:46:45.889Z,17.5
2019-01-30T02:47:46.309Z,17.5
2019-01-30T02:48:46.156Z,17.5
2019-01-30T02:49:46.011Z,17.5
2019-01-30T02:50:46.350Z,17.5
2019-01-30T02:51:45.810Z,17.5
2019-01-30T02:52:46.252Z,17.5
2019-01-30T02:53:46.110Z,17.5
2019-01-30T02:54:46.053Z,17.5
2019-01-30T02:55:46.993Z,17.5
2019-01-30T02:56:46.370Z,17.5
2019-01-30T02:57:46.175Z,17.5
2019-01-30T02:58:46.129Z,17.5
2019-01-30T02:59:46.223Z,17.5
2019-01-30T03:00:46.209Z,17.5
2019-01-30T03:01:46.215Z,17.5
2019-01-30T03:02:45.845Z,17.5
2019-01-30T03:03:45.850Z,17.5
2019-01-30T03:04:46.291Z,17.5
2019-01-30T03:05:46.144Z,17.5
2019-01-30T03:06:46.010Z,17.5
2019-01-30T03:07:46.344Z,17.5
2019-01-30T03:08:46.144Z,17.5
2019-01-30T03:09:46.035Z,17.5
2019-01-30T03:10:46.204Z,17.5
2019-01-30T03:11:46.288Z,17.5
2019-01-30T03:12:46.288Z,17.5
2019-01-30T03:13:46.288Z,17.5
2019-01-30T03:14:45.880Z,17.5
2019-01-30T03:15:46.146Z,17.5
2019-01-30T03:16:46.275Z,17.5
2019-01-30T03:17:45.907Z,17.5
2019-01-30T03:18:45.940Z,17.5
2019-01-30T03:19:45.915Z,17.5
2019-01-30T03:20:45.925Z,17.5
2019-01-30T03:21:46.371Z,17.5
2019-01-30T03:22:45.918Z,17.5
2019-01-30T03:23:46.464Z,17.5
2019-01-30T03:24:46.087Z,17.5
2019-01-30T03:25:46.174Z,17.5
2019-01-30T03:26:46.635Z,17.5
2019-01-30T03:27:46.315Z,17.5
2019-01-30T03:28:45.993Z,17.5
2019-01-30T03:29:46.002Z,17.5
2019-01-30T03:30:46.006Z,17.5
2019-01-30T03:31:46.007Z,17.5
2019-01-30T03:32:46.398Z,17.5
2019-01-30T03:33:46.145Z,17.5
2019-01-30T03:34:46.114Z,17.5
2019-01-30T03:35:46.055Z,17.5
2019-01-30T03:36:45.859Z,17.5
2019-01-30T03:37:46.235Z,17.5
2019-01-30T03:38:46.068Z,17.5
2019-01-30T03:39:45.924Z,17.5
2019-01-30T03:40:46.016Z,17.5
2019-01-30T03:41:46.018Z,17.5
2019-01-30T03:42:45.929Z,17.5
2019-01-30T03:43:46.420Z,17.5
2019-01-30T03:44:46.213Z,17.5
2019-01-30T03:45:45.959Z,17.5
2019-01-30T03:46:46.075Z,17.5
2019-01-30T03:47:45.769Z,17.5
2019-01-30T03:48:46.098Z,17.5
2019-01-30T03:49:46.026Z,17.5
2019-01-30T03:50:46.340Z,17.5
2019-01-30T03:51:45.991Z,17.5
2019-01-30T03:52:45.847Z,17.25
2019-01-30T03:53:46.118Z,17.25
2019-01-30T03:54:46.008Z,17.5
2019-01-30T03:55:46.387Z,17.5
2019-01-30T03:56:46.092Z,17.25
2019-01-30T03:57:46.000Z,17.25
2019-01-30T03:58:47.733Z,17.25
2019-01-30T03:59:46.268Z,17.25
2019-01-30T04:00:46.620Z,17.25
2019-01-30T04:01:47.756Z,17.25
2019-01-30T04:02:46.459Z,17.25
2019-01-30T04:03:47.922Z,17.25
2019-01-30T04:04:46.969Z,17.25
2019-01-30T04:05:45.994Z,17.25
2019-01-30T04:06:46.473Z,17.25
2019-01-30T04:07:46.268Z,17.25
2019-01-30T04:08:46.414Z,17.25
2019-01-30T04:09:47.702Z,17.25
2019-01-30T04:10:46.682Z,17.25
2019-01-30T04:11:46.303Z,17.25
2019-01-30T04:12:46.424Z,17.25
2019-01-30T04:13:46.206Z,17.25
2019-01-30T04:14:46.058Z,17.25
2019-01-30T04:16:46.424Z,17.25
2019-01-30T04:17:46.553Z,17.25
2019-01-30T04:18:46.150Z,17.25
2019-01-30T04:19:45.985Z,17.25
2019-01-30T04:20:46.123Z,17.25
2019-01-30T04:21:45.811Z,17.25
2019-01-30T04:22:46.294Z,17.25
2019-01-30T04:23:45.985Z,17.25
2019-01-30T04:24:46.301Z,17.25
2019-01-30T04:25:46.298Z,17.25
2019-01-30T04:26:46.399Z,17.25
2019-01-30T04:27:46.540Z,17.25
2019-01-30T04:28:46.403Z,17.25
2019-01-30T04:29:46.214Z,17.25
2019-01-30T04:30:46.081Z,17.25
2019-01-30T04:31:46.134Z,17.25
2019-01-30T04:32:46.232Z,17.25
2019-01-30T04:33:46.969Z,17.25
2019-01-30T04:34:46.045Z,17.25
2019-01-30T04:35:45.851Z,17.25
2019-01-30T04:36:46.005Z,17.25
2019-01-30T04:37:46.125Z,17.25
2019-01-30T04:38:46.491Z,17.25
2019-01-30T04:39:46.183Z,17.25
2019-01-30T04:40:46.179Z,17.25
2019-01-30T04:41:45.855Z,17.25
2019-01-30T04:42:46.418Z,17.25
2019-01-30T04:43:46.223Z,17.25
2019-01-30T04:44:45.941Z,17.25
2019-01-30T04:45:46.224Z,17.25
2019-01-30T04:46:46.302Z,17.25
2019-01-30T04:47:45.898Z,17.25
2019-01-30T04:48:46.213Z,17.25
2019-01-30T04:49:46.162Z,17.25
2019-01-30T04:50:46.380Z,17.25
2019-01-30T04:51:46.134Z,17.25
2019-01-30T04:52:45.783Z,17.25
2019-01-30T04:53:46.191Z,17.25
2019-01-30T04:54:45.998Z,17.25
2019-01-30T04:55:45.920Z,17.25
2019-01-30T04:56:45.933Z,17.25
2019-01-30T04:57:46.368Z,17.25
2019-01-30T04:58:45.781Z,17.25
2019-01-30T04:59:46.637Z,17.25
2019-01-30T05:00:46.146Z,17.25
2019-01-30T05:01:50.293Z,17.25
2019-01-30T05:02:46.133Z,17.25
2019-01-30T05:03:46.254Z,17.25
2019-01-30T05:04:47.341Z,17.25
2019-01-30T05:05:46.288Z,17.5
2019-01-30T05:06:46.287Z,17.25
2019-01-30T05:07:46.399Z,17.5
2019-01-30T05:08:46.062Z,17.5
2019-01-30T05:09:46.158Z,17.5
2019-01-30T05:10:45.965Z,17.5
2019-01-30T05:11:45.817Z,17.5
2019-01-30T05:12:46.640Z,17.5
2019-01-30T05:13:45.901Z,17.5
2019-01-30T05:14:45.738Z,17.5
2019-01-30T05:15:45.852Z,17.5
2019-01-30T05:16:46.143Z,17.5
2019-01-30T05:17:45.779Z,17.5
2019-01-30T05:18:45.702Z,17.5
2019-01-30T05:19:45.960Z,17.5
2019-01-30T05:20:45.741Z,17.5
2019-01-30T05:21:46.284Z,17.5
2019-01-30T05:22:45.743Z,17.5
2019-01-30T05:23:45.882Z,17.5
2019-01-30T05:24:46.059Z,17.5
2019-01-30T05:25:46.039Z,17.5
2019-01-30T05:26:45.708Z,17.5
2019-01-30T05:27:45.967Z,17.5
2019-01-30T05:28:45.785Z,17.75
2019-01-30T05:29:45.909Z,17.75
2019-01-30T05:30:45.763Z,17.75
2019-01-30T05:31:45.841Z,17.75
2019-01-30T05:32:45.953Z,17.75
2019-01-30T05:33:47.902Z,17.75
2019-01-30T05:34:45.782Z,17.75
2019-01-30T05:35:46.292Z,17.75
2019-01-30T05:36:46.182Z,17.75
2019-01-30T05:37:46.035Z,17.75
2019-01-30T05:38:45.794Z,17.75
2019-01-30T05:39:46.715Z,17.75
2019-01-30T05:40:46.521Z,17.75
2019-01-30T05:41:46.166Z,17.75
2019-01-30T05:42:45.956Z,17.75
2019-01-30T05:43:46.040Z,17.75
2019-01-30T05:44:45.986Z,17.75
2019-01-30T05:45:45.970Z,17.75
2019-01-30T05:46:45.803Z,17.75
2019-01-30T05:47:46.260Z,18
2019-01-30T05:48:45.675Z,18
2019-01-30T05:49:47.773Z,18
2019-01-30T05:50:46.293Z,18
2019-01-30T05:51:45.742Z,18
2019-01-30T05:52:46.315Z,18
2019-01-30T05:53:46.424Z,18
2019-01-30T05:54:46.025Z,18
2019-01-30T05:55:45.990Z,18
2019-01-30T05:56:46.336Z,18
2019-01-30T05:57:47.457Z,18
2019-01-30T05:58:45.975Z,18
2019-01-30T05:59:46.045Z,18
2019-01-30T06:00:46.036Z,18
2019-01-30T06:01:46.259Z,18
2019-01-30T06:03:45.943Z,18
2019-01-30T06:04:45.974Z,18
2019-01-30T06:05:45.850Z,18
2019-01-30T06:06:45.865Z,18
2019-01-30T06:07:46.118Z,18
2019-01-30T06:08:46.091Z,18
2019-01-30T06:09:46.031Z,18
2019-01-30T06:10:45.926Z,18
2019-01-30T06:11:45.852Z,18
2019-01-30T06:12:46.277Z,18
2019-01-30T06:13:45.717Z,18
2019-01-30T06:14:45.874Z,18
2019-01-30T06:15:46.192Z,18.25
2019-01-30T06:16:45.989Z,18.25
2019-01-30T06:17:45.861Z,18.25
2019-01-30T06:18:46.281Z,18.25
2019-01-30T06:19:47.318Z,18.25
2019-01-30T06:20:46.087Z,18.25
2019-01-30T06:21:46.205Z,18.25
2019-01-30T06:22:45.842Z,18.25
2019-01-30T06:23:45.925Z,18.25
2019-01-30T06:24:46.326Z,18.25
2019-01-30T06:25:45.879Z,18.25
2019-01-30T06:26:45.885Z,18.25
2019-01-30T06:27:46.051Z,18.25
2019-01-30T06:28:45.856Z,18.25
2019-01-30T06:29:46.573Z,18.25
2019-01-30T06:30:45.807Z,18.25
2019-01-30T06:31:45.929Z,18.25
2019-01-30T06:32:46.183Z,18.25
2019-01-30T06:33:46.026Z,18.25
2019-01-30T06:34:45.742Z,18.25
2019-01-30T06:35:46.156Z,18.25
2019-01-30T06:36:46.207Z,18.25
2019-01-30T06:37:46.107Z,18.25
2019-01-30T06:38:46.124Z,18.25
2019-01-30T06:39:46.117Z,18.25
2019-01-30T06:40:45.998Z,18.25
2019-01-30T06:41:47.880Z,18.25
2019-01-30T06:42:46.054Z,18.25
2019-01-30T06:43:46.360Z,18.25
2019-01-30T06:44:45.806Z,18.25
2019-01-30T06:45:47.886Z,18.25
2019-01-30T06:46:47.395Z,18.25
2019-01-30T06:47:45.969Z,18.25
2019-01-30T06:48:46.257Z,18.5
2019-01-30T06:49:46.916Z,18.5
2019-01-30T06:50:45.826Z,18.5
2019-01-30T06:51:46.210Z,18.5
2019-01-30T06:52:46.019Z,18.5
2019-01-30T06:53:45.796Z,18.5
2019-01-30T06:54:46.006Z,18.5
2019-01-30T06:55:45.722Z,18.5
2019-01-30T06:56:45.688Z,18.5
2019-01-30T06:57:45.947Z,18.5
2019-01-30T06:58:46.011Z,18.5
2019-01-30T06:59:45.710Z,18.5
2019-01-30T07:00:45.741Z,18.5
2019-01-30T07:01:46.006Z,18.5
2019-01-30T07:02:46.008Z,18.5
2019-01-30T07:03:45.715Z,18.5
2019-01-30T07:04:45.988Z,18.5
2019-01-30T07:05:45.856Z,18.5
2019-01-30T07:06:46.218Z,18.5
2019-01-30T07:07:45.963Z,18.5
2019-01-30T07:08:45.858Z,18.5
2019-01-30T07:09:46.050Z,18.5
2019-01-30T07:10:45.784Z,18.5
2019-01-30T07:11:45.770Z,18.5
2019-01-30T07:12:46.852Z,18.5
2019-01-30T07:13:45.717Z,18.5
2019-01-30T07:14:46.996Z,18.5
2019-01-30T07:15:46.123Z,18.5
2019-01-30T07:16:45.965Z,18.5
2019-01-30T07:17:46.180Z,18.5
2019-01-30T07:18:45.657Z,18.5
2019-01-30T07:19:46.393Z,18.5
2019-01-30T07:20:45.826Z,18.5
2019-01-30T07:21:46.125Z,18.5
2019-01-30T07:22:46.028Z,18.5
2019-01-30T07:24:45.944Z,18.5
2019-01-30T07:25:45.914Z,18.5
2019-01-30T07:26:45.959Z,18.5
2019-01-30T07:27:45.861Z,18.75
2019-01-30T07:28:45.893Z,18.75
2019-01-30T07:29:46.156Z,18.75
2019-01-30T07:30:45.772Z,18.75
2019-01-30T07:31:45.937Z,18.75
2019-01-30T07:32:46.011Z,18.75
2019-01-30T07:33:46.117Z,18.75
2019-01-30T07:34:46.340Z,18.75
2019-01-30T07:35:46.337Z,18.75
2019-01-30T07:36:45.890Z,18.75
2019-01-30T07:37:47.831Z,18.75
2019-01-30T07:38:46.037Z,18.75
2019-01-30T07:39:46.085Z,18.75
2019-01-30T07:40:46.972Z,18.75
2019-01-30T07:41:46.282Z,18.75
2019-01-30T07:42:45.988Z,18.75
2019-01-30T07:43:46.026Z,18.75
2019-01-30T07:44:51.444Z,18.75
2019-01-30T07:45:47.740Z,18.75
2019-01-30T07:46:46.013Z,18.75
2019-01-30T07:47:45.816Z,18.75
2019-01-30T07:48:46.211Z,18.75
2019-01-30T07:49:45.585Z,18.75
2019-01-30T07:50:46.179Z,19
2019-01-30T07:51:46.726Z,19
2019-01-30T07:52:45.785Z,19
2019-01-30T07:53:45.869Z,19
2019-01-30T07:54:45.948Z,19
2019-01-30T07:55:45.954Z,19
2019-01-30T07:56:45.963Z,19
2019-01-30T07:57:45.975Z,19
2019-01-30T07:58:45.860Z,19
2019-01-30T07:59:45.901Z,19
2019-01-30T08:00:45.957Z,19
2019-01-30T08:01:47.667Z,19
2019-01-30T08:02:53.935Z,19
2019-01-30T08:03:46.322Z,19
2019-01-30T08:04:45.759Z,19
2019-01-30T08:05:47.698Z,19
2019-01-30T08:06:47.787Z,19
2019-01-30T08:07:46.136Z,19
2019-01-30T08:08:46.252Z,19
2019-01-30T08:09:46.238Z,19
2019-01-30T08:10:46.054Z,19
2019-01-30T08:11:46.065Z,19
2019-01-30T08:12:45.756Z,19
2019-01-30T08:13:46.086Z,19.25
2019-01-30T08:14:46.316Z,19.25
2019-01-30T08:15:45.887Z,19.25
2019-01-30T08:16:48.274Z,19.25
2019-01-30T08:17:46.063Z,19.25
2019-01-30T08:18:46.120Z,19.25
2019-01-30T08:19:46.043Z,19.25
2019-01-30T08:20:46.353Z,19.25
2019-01-30T08:21:46.053Z,19.25
2019-01-30T08:22:47.896Z,19.25
2019-01-30T08:23:46.427Z,19.25
2019-01-30T08:24:46.026Z,19.25
2019-01-30T08:25:46.135Z,19.25
2019-01-30T08:26:46.768Z,19.25
2019-01-30T08:27:46.759Z,19.25
2019-01-30T08:28:46.963Z,19.25
2019-01-30T08:29:46.486Z,19.25
2019-01-30T08:30:46.086Z,19.25
2019-01-30T08:31:45.976Z,19.25
2019-01-30T08:32:46.547Z,19.25
2019-01-30T08:33:45.852Z,19.25
2019-01-30T08:34:45.674Z,19.25
2019-01-30T08:35:46.027Z,19.25
2019-01-30T08:36:45.775Z,19.25
2019-01-30T08:37:46.252Z,19.25
2019-01-30T08:38:45.839Z,19.25
2019-01-30T08:39:45.779Z,19.25
2019-01-30T08:40:45.734Z,19.25
2019-01-30T08:41:45.886Z,19.25
2019-01-30T08:42:45.796Z,19.25
2019-01-30T08:43:45.793Z,19.25
2019-01-30T08:44:47.588Z,19.25
2019-01-30T08:45:45.773Z,19.25
2019-01-30T08:46:46.000Z,19.25
2019-01-30T08:47:46.208Z,19.25
2019-01-30T08:48:45.694Z,19.5
2019-01-30T08:49:45.788Z,19.5
2019-01-30T08:50:45.608Z,19.5
2019-01-30T08:51:45.788Z,19.25
2019-01-30T08:52:46.825Z,19.5
2019-01-30T08:53:45.726Z,19.5
2019-01-30T08:54:46.696Z,19.5
2019-01-30T08:55:46.097Z,19.5
2019-01-30T08:56:53.496Z,19.25
2019-01-30T08:57:45.806Z,19.5
2019-01-30T08:58:46.075Z,19.5
2019-01-30T08:59:45.651Z,19.25
2019-01-30T09:00:46.374Z,19.5
2019-01-30T09:01:46.148Z,19.5
2019-01-30T09:02:45.723Z,19.5
2019-01-30T09:03:46.426Z,19.5
2019-01-30T09:04:45.852Z,19.5
2019-01-30T09:05:45.833Z,19.5
2019-01-30T09:06:45.960Z,19.5
2019-01-30T09:07:46.054Z,19.5
2019-01-30T09:08:46.198Z,19.5
2019-01-30T09:09:45.861Z,19.5
2019-01-30T09:10:45.760Z,19.5
2019-01-30T09:11:45.998Z,19.5
2019-01-30T09:12:46.381Z,19.5
2019-01-30T09:13:45.795Z,19.5
2019-01-30T09:14:45.789Z,19.5
2019-01-30T09:15:45.711Z,19.5
2019-01-30T09:16:45.852Z,19.5
2019-01-30T09:17:47.464Z,19.5
2019-01-30T09:18:45.633Z,19.5
2019-01-30T09:19:46.060Z,19.5
2019-01-30T09:20:45.853Z,19.5
2019-01-30T09:21:46.069Z,19.5
2019-01-30T09:22:45.986Z,19.5
2019-01-30T09:23:45.743Z,19.5
2019-01-30T09:24:46.244Z,19.5
2019-01-30T09:25:46.182Z,19.5
2019-01-30T09:26:45.893Z,19.5
2019-01-30T09:27:46.099Z,19.5
2019-01-30T09:28:45.792Z,19.5
2019-01-30T09:29:45.708Z,19.5
2019-01-30T09:30:45.718Z,19.5
2019-01-30T09:31:46.441Z,19.5
2019-01-30T09:32:45.786Z,19.5
2019-01-30T09:33:45.982Z,19.5
2019-01-30T09:34:45.882Z,19.5
2019-01-30T09:35:46.070Z,19.5
2019-01-30T09:36:46.131Z,19.5
2019-01-30T09:37:46.019Z,19.5
2019-01-30T09:38:46.765Z,19.5
2019-01-30T09:39:50.831Z,19.5
2019-01-30T09:40:46.401Z,19.5
2019-01-30T09:41:46.096Z,19.5
2019-01-30T09:42:46.011Z,19.5
2019-01-30T09:43:46.070Z,19.5
2019-01-30T09:44:46.039Z,19.5
2019-01-30T09:45:46.838Z,19.5
2019-01-30T09:46:46.106Z,19.5
2019-01-30T09:47:46.016Z,19.5
2019-01-30T09:48:45.829Z,19.5
2019-01-30T09:49:45.964Z,19.5
2019-01-30T09:50:46.186Z,19.5
2019-01-30T09:51:46.048Z,19.5
2019-01-30T09:52:45.647Z,19.5
2019-01-30T09:53:46.092Z,19.5
2019-01-30T09:54:46.300Z,19.5
2019-01-30T09:55:45.636Z,19.5
2019-01-30T09:56:46.180Z,19.5
2019-01-30T09:57:45.856Z,19.5
2019-01-30T09:58:46.023Z,19.5
2019-01-30T09:59:46.028Z,19.5
2019-01-30T10:00:45.807Z,19.5
2019-01-30T10:01:45.806Z,19.5
2019-01-30T10:02:46.145Z,19.5
2019-01-30T10:03:46.053Z,19.5
2019-01-30T10:04:46.090Z,19.5
2019-01-30T10:05:45.818Z,19.5
2019-01-30T10:06:45.702Z,19.5
2019-01-30T10:07:45.586Z,19.5
2019-01-30T10:08:45.934Z,19.5
2019-01-30T10:09:45.804Z,19.5
2019-01-30T10:10:45.859Z,19.5
2019-01-30T10:11:45.974Z,19.5
2019-01-30T10:12:45.800Z,19.5
2019-01-30T10:13:45.779Z,19.5
2019-01-30T10:14:46.037Z,19.5
2019-01-30T10:15:45.772Z,19.5
2019-01-30T10:16:45.914Z,19.5
2019-01-30T10:17:46.851Z,19.5
2019-01-30T10:19:45.798Z,19.5
2019-01-30T10:20:45.548Z,19.5
2019-01-30T10:21:45.762Z,19.5
2019-01-30T10:22:46.607Z,19.5
2019-01-30T10:23:45.773Z,19.5
2019-01-30T10:24:46.109Z,19.5
2019-01-30T10:25:45.699Z,19.5
2019-01-30T10:26:45.827Z,19.5
2019-01-30T10:27:45.811Z,19.5
2019-01-30T10:28:45.522Z,19.5
2019-01-30T10:29:46.048Z,19.5
2019-01-30T10:30:45.862Z,19.5
2019-01-30T10:31:45.826Z,19.5
2019-01-30T10:32:45.973Z,19.5
2019-01-30T10:33:47.076Z,19.5
2019-01-30T10:34:45.718Z,19.5
2019-01-30T10:35:46.155Z,19.5
2019-01-30T10:36:46.393Z,19.5
2019-01-30T10:37:45.910Z,19.5
2019-01-30T10:38:45.855Z,19.5
2019-01-30T10:39:45.886Z,19.5
2019-01-30T10:40:47.649Z,19.5
2019-01-30T10:41:45.978Z,19.5
2019-01-30T10:42:45.805Z,19.5
2019-01-30T10:43:45.710Z,19.5
2019-01-30T10:44:46.231Z,19.5
2019-01-30T10:45:45.623Z,19.5
2019-01-30T10:46:45.808Z,19.5
2019-01-30T10:47:45.810Z,19.5
2019-01-30T10:48:46.792Z,19.5
2019-01-30T10:49:45.758Z,19.5
2019-01-30T10:50:46.211Z,19.5
2019-01-30T10:51:45.854Z,19.5
2019-01-30T10:52:45.967Z,19.5
2019-01-30T10:53:48.517Z,19.5
2019-01-30T10:54:45.784Z,19.5
2019-01-30T10:55:45.791Z,19.5
2019-01-30T10:56:46.122Z,19.5
2019-01-30T10:57:45.755Z,19.5
2019-01-30T10:58:46.307Z,19.5
2019-01-30T10:59:45.729Z,19.5
2019-01-30T11:00:45.979Z,19.5
2019-01-30T11:01:46.120Z,19.5
2019-01-30T11:02:46.763Z,19.5
2019-01-30T11:03:45.793Z,19.5
2019-01-30T11:04:45.779Z,19.5
2019-01-30T11:05:45.921Z,19.5
2019-01-30T11:06:45.799Z,19.5
2019-01-30T11:07:45.670Z,19.5
2019-01-30T11:08:45.719Z,19.5
2019-01-30T11:09:45.696Z,19.5
2019-01-30T11:10:45.897Z,19.5
2019-01-30T11:12:46.013Z,19.5
2019-01-30T11:13:45.855Z,19.5
2019-01-30T11:14:45.756Z,19.5
2019-01-30T11:15:46.120Z,19.5
2019-01-30T11:16:45.553Z,19.5
2019-01-30T11:17:45.732Z,19.5
2019-01-30T11:18:46.290Z,19.5
2019-01-30T11:19:47.579Z,19.75
2019-01-30T11:20:46.922Z,19.5
2019-01-30T11:21:45.808Z,19.75
2019-01-30T11:22:45.748Z,19.75
2019-01-30T11:23:45.770Z,19.75
2019-01-30T11:24:46.744Z,19.75
2019-01-30T11:25:45.967Z,19.75
2019-01-30T11:26:45.945Z,19.75
2019-01-30T11:27:46.445Z,19.75
2019-01-30T11:28:45.768Z,19.75
2019-01-30T11:29:46.161Z,19.75
2019-01-30T11:30:45.705Z,19.75
2019-01-30T11:31:45.875Z,19.75
2019-01-30T11:32:45.888Z,19.75
2019-01-30T11:33:45.666Z,19.75
2019-01-30T11:34:46.517Z,19.75
2019-01-30T11:35:45.673Z,19.75
2019-01-30T11:36:46.087Z,19.75
2019-01-30T11:37:46.647Z,19.75
2019-01-30T11:38:46.230Z,19.75
2019-01-30T11:39:45.799Z,19.75
2019-01-30T11:40:46.050Z,19.75
2019-01-30T11:41:46.257Z,19.75
2019-01-30T11:42:46.054Z,19.75
2019-01-30T11:43:46.368Z,19.75
2019-01-30T11:44:46.164Z,19.75
2019-01-30T11:45:45.962Z,19.75
2019-01-30T11:46:46.287Z,19.75
2019-01-30T11:47:46.094Z,19.75
2019-01-30T11:48:56.949Z,19.75
2019-01-30T11:49:46.096Z,19.75
2019-01-30T11:50:45.679Z,19.75
2019-01-30T11:51:45.689Z,19.75
2019-01-30T11:52:45.724Z,19.75
2019-01-30T11:53:45.857Z,19.75
2019-01-30T11:54:45.932Z,19.75
2019-01-30T11:55:45.768Z,19.75
2019-01-30T11:56:45.735Z,19.75
2019-01-30T11:57:46.576Z,19.75
2019-01-30T11:58:45.758Z,19.75
2019-01-30T11:59:45.503Z,19.75
2019-01-30T12:00:46.284Z,19.75
2019-01-30T12:01:46.037Z,19.75
2019-01-30T12:02:48.806Z,19.75
2019-01-30T12:03:45.672Z,19.75
2019-01-30T12:04:45.875Z,19.75
2019-01-30T12:05:45.928Z,19.75
2019-01-30T12:06:45.984Z,19.75
2019-01-30T12:07:45.888Z,19.75
2019-01-30T12:08:45.677Z,19.75
2019-01-30T12:09:45.689Z,19.75
2019-01-30T12:10:45.915Z,19.75
2019-01-30T12:11:46.599Z,19.75
2019-01-30T12:12:46.070Z,19.75
2019-01-30T12:13:45.743Z,19.75
2019-01-30T12:14:45.906Z,19.75
2019-01-30T12:15:45.831Z,19.75
2019-01-30T12:16:46.215Z,19.75
2019-01-30T12:17:46.705Z,19.75
2019-01-30T12:18:45.952Z,19.75
2019-01-30T12:20:45.917Z,19.75
2019-01-30T12:21:45.832Z,19.75
2019-01-30T12:22:45.895Z,19.75
2019-01-30T12:23:45.846Z,19.75
2019-01-30T12:24:45.949Z,19.75
2019-01-30T12:25:45.866Z,19.75
2019-01-30T12:26:45.806Z,19.75
2019-01-30T12:27:45.994Z,19.75
2019-01-30T12:28:45.638Z,19.75
2019-01-30T12:29:45.807Z,19.75
2019-01-30T12:30:46.203Z,19.75
2019-01-30T12:31:45.890Z,19.75
2019-01-30T12:32:45.833Z,19.75
2019-01-30T12:33:46.016Z,19.75
2019-01-30T12:34:45.737Z,19.75
2019-01-30T12:35:46.108Z,19.75
2019-01-30T12:36:45.550Z,19.75
2019-01-30T12:37:45.850Z,19.75
2019-01-30T12:38:45.830Z,19.75
2019-01-30T12:39:45.848Z,19.75
2019-01-30T12:40:45.826Z,19.75
2019-01-30T12:41:45.791Z,19.75
2019-01-30T12:42:45.886Z,19.75
2019-01-30T12:43:45.772Z,19.75
2019-01-30T12:44:45.713Z,19.75
2019-01-30T12:45:46.045Z,19.75
2019-01-30T12:46:45.769Z,19.75
2019-01-30T12:47:45.738Z,19.75
2019-01-30T12:48:45.696Z,19.75
2019-01-30T12:49:45.634Z,19.75
2019-01-30T12:50:45.852Z,19.75
2019-01-30T12:51:46.070Z,19.75
2019-01-30T12:52:45.792Z,19.75
2019-01-30T12:53:45.848Z,19.75
2019-01-30T12:54:46.016Z,19.75
2019-01-30T12:55:45.864Z,19.75
2019-01-30T12:56:45.646Z,19.75
2019-01-30T12:57:46.700Z,19.75
2019-01-30T12:58:45.886Z,19.75
2019-01-30T12:59:46.286Z,19.75
2019-01-30T13:00:46.218Z,19.75
2019-01-30T13:01:46.020Z,19.75
2019-01-30T13:02:46.066Z,20
2019-01-30T13:03:46.025Z,19.75
2019-01-30T13:04:45.723Z,19.75
2019-01-30T13:05:46.106Z,20
2019-01-30T13:06:46.127Z,20
2019-01-30T13:07:45.739Z,20
2019-01-30T13:08:46.168Z,20
2019-01-30T13:09:46.093Z,20
2019-01-30T13:10:46.053Z,20
2019-01-30T13:11:47.730Z,20
2019-01-30T13:12:45.988Z,20
2019-01-30T13:13:47.271Z,20
2019-01-30T13:14:45.660Z,20
2019-01-30T13:15:47.722Z,20
2019-01-30T13:16:46.099Z,20
2019-01-30T13:17:47.029Z,20
2019-01-30T13:18:45.780Z,20
2019-01-30T13:19:46.667Z,20
2019-01-30T13:20:45.753Z,20
2019-01-30T13:21:47.651Z,20